createdAt,value
2023-04-18T00:00:34.089Z,101070.69
2023-04-18T00:03:04.329Z,101074.34
2023-04-18T00:05:33.242Z,101073.50
2023-04-18T00:08:03.106Z,101075.16
2023-04-18T00:10:31.452Z,101072.56
2023-04-18T00:13:00.575Z,101078.38
2023-04-18T00:15:29.525Z,101068.88
2023-04-18T00:17:58.343Z,101069.16
2023-04-18T00:20:27.240Z,101068.91
2023-04-18T00:22:56.650Z,101063.34
2023-04-18T00:25:26.646Z,101063.63
2023-04-18T00:27:54.949Z,101061.44
2023-04-18T00:30:23.383Z,101054.44
2023-04-18T00:32:51.861Z,101065.03
2023-04-18T00:35:20.932Z,101060.78
2023-04-18T00:37:49.323Z,101064.97
2023-04-18T00:40:17.700Z,101055.81
2023-04-18T00:42:47.307Z,101061.97
2023-04-18T00:45:15.774Z,101059.44
2023-04-18T00:47:44.247Z,101061.41
2023-04-18T00:50:13.921Z,101053.91
2023-04-18T00:52:42.712Z,101056.41
2023-04-18T00:55:11.955Z,101062.84
2023-04-18T00:57:40.269Z,101060.00
2023-04-18T01:00:11.309Z,101055.78
2023-04-18T01:02:41.777Z,101063.28
2023-04-18T01:05:10.303Z,101063.88
2023-04-18T01:07:40.897Z,101060.56
2023-04-18T01:10:10.430Z,101057.19
2023-04-18T01:12:38.989Z,101058.56
2023-04-18T01:15:09.974Z,101049.91
2023-04-18T01:17:38.649Z,101059.56
2023-04-18T01:20:08.516Z,101060.97
2023-04-18T01:22:36.838Z,101062.91
2023-04-18T01:25:10.701Z,101070.38
2023-04-18T01:27:40.237Z,101068.09
2023-04-18T01:30:10.136Z,101069.22
2023-04-18T01:32:38.518Z,101067.56
2023-04-18T01:35:07.820Z,101068.69
2023-04-18T01:37:36.037Z,101062.59
2023-04-18T01:40:04.846Z,101066.44
2023-04-18T01:42:34.768Z,101064.22
2023-04-18T01:45:03.200Z,101061.50
2023-04-18T01:47:32.224Z,101049.75
2023-04-18T01:50:00.625Z,101059.00
2023-04-18T01:52:28.915Z,101055.94
2023-04-18T01:54:57.180Z,101054.53
2023-04-18T01:57:25.651Z,101049.00
2023-04-18T01:59:56.417Z,101056.56
2023-04-18T02:02:24.952Z,101051.16
2023-04-18T02:04:53.439Z,101051.44
2023-04-18T02:07:21.738Z,101056.16
2023-04-18T02:09:50.067Z,101060.06
2023-04-18T02:12:18.392Z,101057.56
2023-04-18T02:14:46.680Z,101058.91
2023-04-18T02:17:16.557Z,101048.41
2023-04-18T02:19:44.999Z,101050.31
2023-04-18T02:22:13.289Z,101051.38
2023-04-18T02:24:41.650Z,101050.31
2023-04-18T02:27:10.066Z,101045.81
2023-04-18T02:29:38.408Z,101054.81
2023-04-18T02:32:08.333Z,101043.06
2023-04-18T02:34:39.601Z,101048.59
2023-04-18T02:37:07.892Z,101039.44
2023-04-18T02:39:36.193Z,101037.00
2023-04-18T02:42:04.739Z,101039.28
2023-04-18T02:44:33.160Z,101047.91
2023-04-18T02:47:01.696Z,101050.91
2023-04-18T02:49:30.241Z,101047.00
2023-04-18T02:52:00.225Z,101047.91
2023-04-18T02:54:28.602Z,101057.13
2023-04-18T02:56:57.185Z,101054.94
2023-04-18T02:59:25.702Z,101048.53
2023-04-18T03:01:54.003Z,101048.25
2023-04-18T03:04:23.434Z,101049.97
2023-04-18T03:06:51.891Z,101038.25
2023-04-18T03:09:21.585Z,101043.59
2023-04-18T03:11:49.994Z,101037.69
2023-04-18T03:14:18.462Z,101044.88
2023-04-18T03:16:46.787Z,101037.91
2023-04-18T03:19:15.160Z,101042.13
2023-04-18T03:21:43.534Z,101041.56
2023-04-18T03:24:12.326Z,101030.41
2023-04-18T03:26:42.318Z,101037.59
2023-04-18T03:29:10.634Z,101030.91
2023-04-18T03:31:39.028Z,101038.22
2023-04-18T03:34:07.504Z,101044.09
2023-04-18T03:36:36.867Z,101038.59
2023-04-18T03:39:05.329Z,101050.31
2023-04-18T03:41:33.709Z,101050.28
2023-04-18T03:44:03.412Z,101053.06
2023-04-18T03:46:31.828Z,101045.28
2023-04-18T03:49:00.256Z,101052.84
2023-04-18T03:51:28.781Z,101045.88
2023-04-18T03:53:57.139Z,101060.91
2023-04-18T03:56:25.657Z,101060.00
2023-04-18T03:58:53.907Z,101057.78
2023-04-18T04:01:23.652Z,101056.41
2023-04-18T04:03:52.860Z,101055.88
2023-04-18T04:06:21.548Z,101055.66
2023-04-18T04:08:50.823Z,101059.88
2023-04-18T04:11:19.341Z,101065.16
2023-04-18T04:13:47.666Z,101059.63
2023-04-18T04:16:16.007Z,101062.69
2023-04-18T04:18:45.876Z,101063.22
2023-04-18T04:21:14.284Z,101059.28
2023-04-18T04:23:43.038Z,101062.31
2023-04-18T04:26:11.472Z,101051.06
2023-04-18T04:28:40.253Z,101052.72
2023-04-18T04:31:10.533Z,101059.41
2023-04-18T04:33:41.580Z,101061.88
2023-04-18T04:36:16.713Z,101065.13
2023-04-18T04:38:47.507Z,101062.38
2023-04-18T04:41:16.638Z,101062.44
2023-04-18T04:43:46.776Z,101054.84
2023-04-18T04:46:15.787Z,101058.56
2023-04-18T04:48:44.214Z,101064.19
2023-04-18T04:51:14.014Z,101055.53
2023-04-18T04:53:42.429Z,101052.75
2023-04-18T04:56:11.242Z,101061.13
2023-04-18T04:58:39.579Z,101066.13
2023-04-18T05:01:09.311Z,101070.34
2023-04-18T05:03:37.817Z,101066.13
2023-04-18T05:06:08.219Z,101063.56
2023-04-18T05:08:38.224Z,101071.09
2023-04-18T05:11:07.090Z,101062.38
2023-04-18T05:13:36.141Z,101058.72
2023-04-18T05:16:04.926Z,101069.88
2023-04-18T05:18:34.928Z,101069.88
2023-04-18T05:21:03.460Z,101072.69
2023-04-18T05:23:32.064Z,101074.34
2023-04-18T05:26:01.928Z,101074.38
2023-04-18T05:28:30.344Z,101081.91
2023-04-18T05:31:01.610Z,101079.44
2023-04-18T05:33:30.398Z,101089.47
2023-04-18T05:35:59.242Z,101086.13
2023-04-18T05:38:27.704Z,101083.28
2023-04-18T05:40:57.276Z,101087.75
2023-04-18T05:43:27.248Z,101073.69
2023-04-18T05:45:57.887Z,101076.50
2023-04-18T05:48:26.457Z,101086.25
2023-04-18T05:50:54.865Z,101084.84
2023-04-18T05:53:23.361Z,101074.09
2023-04-18T05:55:51.783Z,101080.69
2023-04-18T05:58:20.151Z,101080.09
2023-04-18T06:00:49.828Z,101075.56
2023-04-18T06:03:18.261Z,101074.84
2023-04-18T06:05:47.008Z,101080.50
2023-04-18T06:08:15.462Z,101080.31
2023-04-18T06:10:43.858Z,101079.53
2023-04-18T06:13:12.499Z,101084.84
2023-04-18T06:15:40.911Z,101080.66
2023-04-18T06:18:11.696Z,101085.41
2023-04-18T06:20:58.741Z,101079.81
2023-04-18T06:23:45.234Z,101084.25
2023-04-18T06:26:33.000Z,101083.94
2023-04-18T06:29:01.425Z,101080.28
2023-04-18T06:31:29.957Z,101080.72
2023-04-18T06:33:59.825Z,101087.34
2023-04-18T06:36:28.172Z,101086.13
2023-04-18T06:38:56.541Z,101083.22
2023-04-18T06:41:24.829Z,101083.06
2023-04-18T06:44:03.365Z,101081.75
2023-04-18T06:46:33.058Z,101081.38
2023-04-18T06:49:04.191Z,101074.22
2023-04-18T06:51:33.788Z,101078.72
2023-04-18T06:54:02.736Z,101073.31
2023-04-18T06:56:31.200Z,101073.06
2023-04-18T06:58:59.628Z,101077.38
2023-04-18T07:01:28.074Z,101068.75
2023-04-18T07:03:56.652Z,101056.16
2023-04-18T07:06:27.036Z,101055.03
2023-04-18T07:09:00.138Z,101063.06
2023-04-18T07:11:28.733Z,101060.63
2023-04-18T07:13:57.215Z,101061.72
2023-04-18T07:16:25.649Z,101058.91
2023-04-18T07:18:54.036Z,101053.56
2023-04-18T07:21:24.047Z,101054.56
2023-04-18T07:23:53.861Z,101055.56
2023-04-18T07:26:22.210Z,101055.72
2023-04-18T07:28:50.812Z,101044.97
2023-04-18T07:31:19.791Z,101047.72
2023-04-18T07:33:48.208Z,101050.66
2023-04-18T07:36:16.487Z,101048.41
2023-04-18T07:38:46.493Z,101050.06
2023-04-18T07:41:16.260Z,101057.34
2023-04-18T07:43:47.058Z,101061.66
2023-04-18T07:46:15.434Z,101054.19
2023-04-18T07:48:43.832Z,101056.06
2023-04-18T07:51:12.797Z,101033.13
